Time;durP1;ratioP1;P1;durP2;ratioP2;P2;SDS_P1;SDS_P2;PMS_P1;PMS_P2;Temp;Humidity;BMP_temperature;BMP_pressure;BME280_temperature;BME280_humidity;BME280_pressure;Samples;Min_cycle;Max_cycle;Signal;HPM_P1;HPM_P2
2021/08/16 00:00:12;;;;;;;;;;;;;;;23.24;70.46;96234.08;220878;262;193401;-47
2021/08/16 00:01:14;;;;;;;;;;;;;;;23.24;70.55;96231.91;220635;262;99574;-47
2021/08/16 00:02:15;;;;;;;;;;;;;;;23.22;70.45;96235.03;220400;262;98974;-49
2021/08/16 00:03:16;;;;;;;;;;;;;;;23.25;70.34;96232.12;221116;262;97978;-47
2021/08/16 00:04:18;;;;;;;;;;;;;;;23.23;70.40;96227.54;220748;262;98007;-46
2021/08/16 00:05:19;;;;;;;;;;;;;;;23.28;70.34;96222.50;221089;262;97759;-45
2021/08/16 00:06:20;;;;;;;;;;;;;;;23.34;70.08;96227.98;220412;262;97065;-47
2021/08/16 00:07:22;;;;;;;;;;;;;;;23.33;70.09;96222.81;220368;262;98987;-46
2021/08/16 00:08:23;;;;;;;;;;;;;;;23.30;70.12;96216.64;220792;262;98961;-51
2021/08/16 00:09:24;;;;;;;;;;;;;;;23.34;70.03;96219.68;220458;262;98045;-47
2021/08/16 00:10:26;;;;;;;;;;;;;;;23.29;70.18;96220.57;220853;262;98012;-47
2021/08/16 00:11:28;;;;;;;;;;;;;;;23.28;70.27;96219.73;220434;262;97984;-50
2021/08/16 00:12:29;;;;;;;;;;;;;;;23.24;70.35;96217.50;220922;262;98958;-46
2021/08/16 00:13:30;;;;;;;;;;;;;;;23.20;70.53;96219.41;220415;262;98947;-46
2021/08/16 00:14:32;;;;;;;;;;;;;;;23.23;70.49;96213.72;220243;262;194186;-51
2021/08/16 00:15:33;;;;;;;;;;;;;;;23.23;70.44;96217.86;220787;262;98645;-47
2021/08/16 00:16:34;;;;;;;;;;;;;;;23.23;70.43;96223.39;220434;262;98939;-46
2021/08/16 00:17:36;;;;;;;;;;;;;;;23.25;70.34;96225.20;220846;262;98938;-46
2021/08/16 00:18:37;;;;;;;;;;;;;;;23.28;70.28;96214.80;220437;262;98893;-46
2021/08/16 00:19:38;;;;;;;;;;;;;;;23.28;70.26;96220.33;220629;262;98991;-46
2021/08/16 00:20:40;;;;;;;;;;;;;;;23.23;70.46;96215.09;219470;264;99438;-47
2021/08/16 00:21:41;;;;;;;;;;;;;;;23.24;70.39;96211.17;221247;261;100018;-46
2021/08/16 00:22:42;;;;;;;;;;;;;;;23.21;70.53;96210.52;221132;262;97970;-47
2021/08/16 00:23:44;;;;;;;;;;;;;;;23.19;70.52;96201.80;221609;262;98948;-46
2021/08/16 00:24:45;;;;;;;;;;;;;;;23.27;70.29;96206.28;221442;262;98924;-47
2021/08/16 00:25:46;;;;;;;;;;;;;;;23.24;70.35;96207.02;221380;262;98941;-45
2021/08/16 00:26:48;;;;;;;;;;;;;;;23.26;70.27;96202.72;222539;261;98937;-45
2021/08/16 00:27:49;;;;;;;;;;;;;;;23.25;70.33;96198.36;222345;261;98968;-45
2021/08/16 00:28:50;;;;;;;;;;;;;;;23.23;70.39;96206.80;221503;261;98027;-45
2021/08/16 00:29:52;;;;;;;;;;;;;;;23.23;70.37;96201.28;221918;262;97984;-46
2021/08/16 00:30:53;;;;;;;;;;;;;;;23.24;70.35;96199.53;221675;262;98958;-46
2021/08/16 00:31:54;;;;;;;;;;;;;;;23.20;70.42;96196.48;221619;262;98934;-46
2021/08/16 00:32:56;;;;;;;;;;;;;;;23.24;70.44;96196.77;221011;262;98950;-46
2021/08/16 00:33:57;;;;;;;;;;;;;;;23.25;70.32;96197.56;221485;261;98850;-47
2021/08/16 00:34:58;;;;;;;;;;;;;;;23.25;70.28;96198.95;221053;261;98937;-47
2021/08/16 00:36:00;;;;;;;;;;;;;;;23.25;70.36;96192.83;220395;262;97962;-46
2021/08/16 00:37:01;;;;;;;;;;;;;;;23.22;70.43;96191.39;221273;261;98039;-46
2021/08/16 00:38:02;;;;;;;;;;;;;;;23.19;70.46;96188.78;220638;262;99543;-48
2021/08/16 00:39:04;;;;;;;;;;;;;;;23.24;70.48;96192.61;221620;261;98948;-46
2021/08/16 00:40:05;;;;;;;;;;;;;;;23.24;70.43;96191.81;221616;261;98750;-46
2021/08/16 00:41:06;;;;;;;;;;;;;;;23.23;70.39;96190.22;221559;262;98942;-46
2021/08/16 00:42:10;;;;;;;;;;;;;;;23.24;70.46;96186.29;221398;262;97951;-46
2021/08/16 00:43:11;;;;;;;;;;;;;;;23.23;70.45;96184.11;221416;262;163445;-45
2021/08/16 00:44:12;;;;;;;;;;;;;;;23.21;70.79;96181.50;221504;261;98914;-46
2021/08/16 00:45:13;;;;;;;;;;;;;;;23.21;70.51;96178.15;221498;261;99050;-45
2021/08/16 00:46:15;;;;;;;;;;;;;;;23.24;70.33;96181.55;221781;261;98872;-45
2021/08/16 00:47:16;;;;;;;;;;;;;;;23.23;70.50;96181.34;221581;261;98961;-45
2021/08/16 00:48:17;;;;;;;;;;;;;;;23.22;70.67;96178.36;221649;262;98938;-47
2021/08/16 00:49:19;;;;;;;;;;;;;;;23.20;70.67;96177.14;221635;260;98914;-47
2021/08/16 00:50:20;;;;;;;;;;;;;;;23.21;70.50;96178.73;221163;262;97991;-45
2021/08/16 00:51:21;;;;;;;;;;;;;;;23.24;70.38;96182.14;221675;261;98078;-45
2021/08/16 00:52:23;;;;;;;;;;;;;;;23.25;70.43;96178.21;221435;261;98945;-45
2021/08/16 00:53:24;;;;;;;;;;;;;;;23.18;70.54;96179.44;221447;262;98961;-44
2021/08/16 00:54:25;;;;;;;;;;;;;;;23.19;70.45;96175.53;221513;261;99038;-44
2021/08/16 00:55:27;;;;;;;;;;;;;;;23.20;70.48;96174.37;221621;262;100227;-46
2021/08/16 00:56:28;;;;;;;;;;;;;;;23.18;70.46;96173.91;221718;261;97975;-45
2021/08/16 00:57:29;;;;;;;;;;;;;;;23.17;70.71;96166.78;221668;261;98004;-45
2021/08/16 00:58:31;;;;;;;;;;;;;;;23.15;70.79;96170.50;221478;262;97988;-45
2021/08/16 00:59:32;;;;;;;;;;;;;;;23.13;70.70;96174.22;221075;260;98958;-47
2021/08/16 01:00:33;;;;;;;;;;;;;;;23.13;70.75;96170.07;221469;262;99067;-45
2021/08/16 01:01:35;;;;;;;;;;;;;;;23.15;70.65;96170.50;221538;261;98871;-47
2021/08/16 01:02:36;;;;;;;;;;;;;;;23.12;70.66;96163.75;221882;261;98986;-45
2021/08/16 01:03:38;;;;;;;;;;;;;;;23.09;70.85;96170.81;221466;261;98756;-46
2021/08/16 01:04:39;;;;;;;;;;;;;;;23.11;70.75;96161.35;221474;261;193512;-45
2021/08/16 01:05:40;;;;;;;;;;;;;;;23.14;70.61;96162.80;221624;262;98935;-45
2021/08/16 01:06:42;;;;;;;;;;;;;;;23.15;70.78;96160.83;221636;261;97955;-48
2021/08/16 01:07:43;;;;;;;;;;;;;;;23.16;70.64;96163.80;221452;262;97996;-47
2021/08/16 01:08:44;;;;;;;;;;;;;;;23.15;70.64;96164.39;221064;261;99196;-45
2021/08/16 01:09:46;;;;;;;;;;;;;;;23.14;70.73;96167.52;221317;262;98845;-45
2021/08/16 01:10:47;;;;;;;;;;;;;;;23.13;70.71;96168.11;221519;261;98908;-46
2021/08/16 01:11:48;;;;;;;;;;;;;;;23.13;70.79;96168.69;221021;262;98939;-47
2021/08/16 01:12:50;;;;;;;;;;;;;;;23.11;70.80;96166.87;221087;263;99971;-46
2021/08/16 01:13:51;;;;;;;;;;;;;;;23.09;70.84;96168.05;221581;262;98911;-45
2021/08/16 01:14:52;;;;;;;;;;;;;;;23.07;70.87;96166.23;221852;262;99028;-45
2021/08/16 01:15:54;;;;;;;;;;;;;;;23.05;70.89;96161.63;221337;262;98928;-48
2021/08/16 01:16:55;;;;;;;;;;;;;;;23.13;70.73;96163.96;220744;263;98950;-47
2021/08/16 01:17:56;;;;;;;;;;;;;;;23.14;70.80;96163.38;218984;264;98111;-45
2021/08/16 01:18:58;;;;;;;;;;;;;;;23.13;70.83;96159.02;221114;261;98041;-45
2021/08/16 01:19:59;;;;;;;;;;;;;;;23.14;70.72;96151.73;221456;261;98011;-44
2021/08/16 01:21:01;;;;;;;;;;;;;;;23.10;70.82;96150.88;221306;261;99352;-45
2021/08/16 01:22:02;;;;;;;;;;;;;;;23.13;70.64;96155.67;221460;261;98928;-44
2021/08/16 01:23:03;;;;;;;;;;;;;;;23.11;70.66;96148.91;221303;261;98932;-45
2021/08/16 01:24:05;;;;;;;;;;;;;;;23.12;70.76;96154.66;221331;261;99317;-48
2021/08/16 01:25:06;;;;;;;;;;;;;;;23.07;70.91;96143.30;221275;261;99447;-46
2021/08/16 01:26:07;;;;;;;;;;;;;;;23.06;70.88;96141.11;221108;261;193572;-46
2021/08/16 01:27:09;;;;;;;;;;;;;;;23.07;70.72;96144.13;221528;261;98949;-45
2021/08/16 01:28:10;;;;;;;;;;;;;;;23.06;70.77;96144.46;221250;261;98003;-47
2021/08/16 01:29:11;;;;;;;;;;;;;;;23.06;70.78;96141.11;221426;261;97796;-45
2021/08/16 01:30:13;;;;;;;;;;;;;;;23.09;70.67;96147.31;221232;261;97334;-47
2021/08/16 01:31:14;;;;;;;;;;;;;;;23.06;70.67;96146.64;221483;261;98956;-46
2021/08/16 01:32:15;;;;;;;;;;;;;;;23.06;70.68;96150.78;221241;261;99046;-45
2021/08/16 01:33:17;;;;;;;;;;;;;;;23.08;70.59;96150.45;221187;261;100597;-45
2021/08/16 01:34:18;;;;;;;;;;;;;;;23.07;70.64;96149.65;221285;261;99010;-44
2021/08/16 01:35:19;;;;;;;;;;;;;;;23.08;70.67;96152.63;221289;261;99343;-47
2021/08/16 01:36:21;;;;;;;;;;;;;;;23.05;70.75;96150.57;221508;261;98039;-45
2021/08/16 01:37:22;;;;;;;;;;;;;;;23.07;70.70;96145.50;221245;261;99008;-45
2021/08/16 01:38:23;;;;;;;;;;;;;;;23.07;70.75;96146.06;221463;261;99070;-45
2021/08/16 01:39:25;;;;;;;;;;;;;;;23.06;70.74;96142.49;221214;261;98926;-48
2021/08/16 01:40:26;;;;;;;;;;;;;;;23.08;70.67;96142.95;221397;261;98956;-45
2021/08/16 01:41:28;;;;;;;;;;;;;;;23.09;70.65;96140.98;222215;261;100336;-46
2021/08/16 01:42:29;;;;;;;;;;;;;;;23.10;70.68;96143.97;222029;261;98035;-46
2021/08/16 01:43:30;;;;;;;;;;;;;;;23.13;70.57;96141.84;222185;261;97094;-46
2021/08/16 01:44:31;;;;;;;;;;;;;;;23.16;70.47;96138.93;221840;261;98798;-49
2021/08/16 01:45:33;;;;;;;;;;;;;;;23.16;70.45;96133.40;222253;261;99440;-46
2021/08/16 01:46:34;;;;;;;;;;;;;;;23.13;70.65;96136.91;222031;261;98956;-45
2021/08/16 01:47:36;;;;;;;;;;;;;;;23.13;70.50;96136.91;221901;261;195501;-47
2021/08/16 01:48:37;;;;;;;;;;;;;;;23.11;70.65;96133.71;222280;261;97617;-45
2021/08/16 01:49:38;;;;;;;;;;;;;;;23.11;70.63;96137.86;221896;260;189369;-49
2021/08/16 01:50:40;;;;;;;;;;;;;;;23.08;70.77;96138.81;221871;261;276250;-45
2021/08/16 01:51:41;;;;;;;;;;;;;;;23.08;70.67;96134.66;221958;261;193735;-46
2021/08/16 01:52:42;;;;;;;;;;;;;;;23.08;70.56;96133.87;221974;261;193629;-47
2021/08/16 01:53:44;;;;;;;;;;;;;;;23.05;70.70;96125.70;222161;261;98992;-47
2021/08/16 01:54:45;;;;;;;;;;;;;;;23.04;70.69;96128.83;221868;261;98937;-48
2021/08/16 01:55:46;;;;;;;;;;;;;;;23.08;70.58;96129.72;222233;261;97965;-46
2021/08/16 01:56:48;;;;;;;;;;;;;;;23.07;70.64;96130.30;222072;261;98019;-45
2021/08/16 01:57:49;;;;;;;;;;;;;;;23.05;70.66;96127.08;222299;261;97989;-45
2021/08/16 01:58:51;;;;;;;;;;;;;;;23.04;70.64;96114.43;222038;260;98932;-45
2021/08/16 01:59:52;;;;;;;;;;;;;;;23.04;70.74;96110.28;221349;261;194322;-46
2021/08/16 02:00:54;;;;;;;;;;;;;;;23.06;70.61;96120.97;220509;264;99069;-46
2021/08/16 02:01:55;;;;;;;;;;;;;;;23.02;70.82;96118.73;219337;262;98977;-47
2021/08/16 02:02:56;;;;;;;;;;;;;;;23.04;70.69;96117.78;219804;263;98965;-47
2021/08/16 02:03:58;;;;;;;;;;;;;;;23.03;70.68;96124.47;219320;263;98875;-47
2021/08/16 02:04:59;;;;;;;;;;;;;;;23.03;70.75;96125.27;220081;262;98938;-45
2021/08/16 02:06:00;;;;;;;;;;;;;;;23.04;70.62;96128.25;222086;261;98960;-47
2021/08/16 02:07:02;;;;;;;;;;;;;;;23.08;70.60;96118.66;219895;263;98817;-45
2021/08/16 02:08:04;;;;;;;;;;;;;;;23.06;70.57;96117.62;220916;262;98991;-45
2021/08/16 02:09:05;;;;;;;;;;;;;;;23.06;70.58;96113.47;221652;261;98912;-48
2021/08/16 02:10:06;;;;;;;;;;;;;;;23.04;70.63;96118.58;221750;262;99075;-45
2021/08/16 02:11:08;;;;;;;;;;;;;;;23.02;70.69;96118.14;221542;262;98948;-46
2021/08/16 02:12:09;;;;;;;;;;;;;;;23.02;70.64;96109.05;221858;262;98909;-46
2021/08/16 02:13:11;;;;;;;;;;;;;;;23.01;70.72;96106.87;221553;262;195895;-45
2021/08/16 02:14:12;;;;;;;;;;;;;;;23.07;70.60;96110.12;221400;262;192486;-47
2021/08/16 02:15:13;;;;;;;;;;;;;;;23.06;70.55;96107.95;221722;262;97081;-47
2021/08/16 02:16:15;;;;;;;;;;;;;;;23.06;70.56;96110.72;221526;262;99446;-49
2021/08/16 02:17:16;;;;;;;;;;;;;;;23.07;70.50;96109.58;221742;262;98933;-47
2021/08/16 02:18:17;;;;;;;;;;;;;;;23.05;70.43;96103.59;221545;262;97975;-45
2021/08/16 02:19:19;;;;;;;;;;;;;;;23.04;70.51;96103.38;221815;261;97994;-52
2021/08/16 02:20:20;;;;;;;;;;;;;;;23.07;70.47;96102.66;221097;262;98018;-51
2021/08/16 02:21:21;;;;;;;;;;;;;;;23.03;70.51;96105.92;221348;261;97068;-49
2021/08/16 02:22:23;;;;;;;;;;;;;;;23.03;70.55;96106.51;221753;261;98740;-53
2021/08/16 02:23:24;;;;;;;;;;;;;;;23.05;70.60;96100.02;221404;262;98953;-51
2021/08/16 02:24:25;;;;;;;;;;;;;;;23.09;70.44;96103.09;221974;261;98981;-53
2021/08/16 02:25:27;;;;;;;;;;;;;;;23.09;70.40;96101.71;222280;261;97966;-54
2021/08/16 02:26:28;;;;;;;;;;;;;;;23.09;70.42;96107.23;221962;262;98022;-49
2021/08/16 02:27:29;;;;;;;;;;;;;;;23.11;70.34;96104.11;221602;262;97993;-51
2021/08/16 02:28:31;;;;;;;;;;;;;;;23.07;70.42;96097.14;221277;262;97055;-50
2021/08/16 02:29:32;;;;;;;;;;;;;;;23.11;70.36;96095.81;220541;263;98937;-52
2021/08/16 02:30:33;;;;;;;;;;;;;;;23.11;70.26;96097.78;221408;262;98925;-49
2021/08/16 02:31:35;;;;;;;;;;;;;;;23.08;70.34;96094.59;222226;261;97965;-54
2021/08/16 02:32:36;;;;;;;;;;;;;;;23.09;70.29;96098.95;222373;261;98046;-53
2021/08/16 02:33:37;;;;;;;;;;;;;;;23.08;70.41;96098.73;221853;262;98083;-54
2021/08/16 02:34:39;;;;;;;;;;;;;;;23.09;70.45;96100.33;221537;262;98980;-51
2021/08/16 02:35:40;;;;;;;;;;;;;;;23.05;70.43;96095.30;221597;262;98956;-53
2021/08/16 02:36:41;;;;;;;;;;;;;;;23.06;70.40;96093.33;221902;262;98933;-51
2021/08/16 02:37:43;;;;;;;;;;;;;;;23.06;70.34;96092.75;221698;262;97959;-51
2021/08/16 02:38:44;;;;;;;;;;;;;;;23.06;70.42;96094.71;221911;261;98042;-53
2021/08/16 02:39:45;;;;;;;;;;;;;;;23.08;70.22;96087.68;221612;262;98015;-50
2021/08/16 02:40:47;;;;;;;;;;;;;;;23.14;70.16;96091.52;222001;262;97045;-49
2021/08/16 02:41:48;;;;;;;;;;;;;;;23.09;70.35;96084.33;221642;262;98957;-50
2021/08/16 02:42:49;;;;;;;;;;;;;;;23.05;70.44;96091.16;221624;262;98925;-52
2021/08/16 02:43:51;;;;;;;;;;;;;;;23.05;70.40;96088.39;221573;262;99654;-54
2021/08/16 02:44:52;;;;;;;;;;;;;;;23.03;70.61;96092.11;221609;262;98045;-53
2021/08/16 02:45:53;;;;;;;;;;;;;;;23.04;70.42;96099.23;221879;262;98123;-56
2021/08/16 02:46:57;;;;;;;;;;;;;;;23.05;70.53;96098.06;221657;262;97240;-54
2021/08/16 02:47:58;;;;;;;;;;;;;;;23.12;70.36;96096.61;221538;262;243151;-55
2021/08/16 02:48:59;;;;;;;;;;;;;;;23.11;70.18;96103.31;221218;262;194700;-51
2021/08/16 02:50:00;;;;;;;;;;;;;;;23.12;70.21;96097.99;220751;262;192996;-53
2021/08/16 02:51:02;;;;;;;;;;;;;;;23.04;70.27;96093.70;220999;262;97955;-51
2021/08/16 02:52:06;;;;;;;;;;;;;;;23.05;70.25;96093.12;220436;262;98916;-56
2021/08/16 02:53:06;;;;;;;;;;;;;;;23.06;70.28;96092.75;221679;262;67371;-53
2021/08/16 02:54:07;;;;;;;;;;;;;;;23.04;70.33;96095.67;221444;262;99050;-51
2021/08/16 02:55:09;;;;;;;;;;;;;;;23.06;70.28;96090.56;222131;261;276758;-49
2021/08/16 02:56:10;;;;;;;;;;;;;;;23.05;70.18;96098.06;220768;263;195728;-52
2021/08/16 02:57:16;;;;;;;;;;;;;;;23.02;70.22;96093.86;221596;262;194942;-55
2021/08/16 02:58:15;;;;;;;;;;;;;;;23.02;70.30;96093.27;221604;262;73116;-51
2021/08/16 02:59:16;;;;;;;;;;;;;;;23.07;70.19;96094.93;221019;261;98960;-55
2021/08/16 03:00:17;;;;;;;;;;;;;;;23.06;70.29;96096.89;221762;262;98935;-54
2021/08/16 03:01:19;;;;;;;;;;;;;;;23.01;70.26;96099.97;220504;262;98945;-53
2021/08/16 03:02:20;;;;;;;;;;;;;;;22.99;70.33;96105.06;221646;261;276942;-51
2021/08/16 03:03:21;;;;;;;;;;;;;;;22.96;70.38;96102.21;221405;261;194841;-52
2021/08/16 03:04:23;;;;;;;;;;;;;;;22.97;70.32;96101.88;220710;262;192992;-51
2021/08/16 03:05:24;;;;;;;;;;;;;;;22.92;70.39;96100.77;220683;262;98040;-51
2021/08/16 03:06:27;;;;;;;;;;;;;;;22.96;70.30;96095.30;220923;261;98136;-50
2021/08/16 03:07:28;;;;;;;;;;;;;;;23.01;70.28;96095.83;221755;261;99063;-50
2021/08/16 03:08:30;;;;;;;;;;;;;;;23.00;70.26;96092.84;221513;261;98866;-53
2021/08/16 03:09:31;;;;;;;;;;;;;;;22.98;70.20;96097.95;220265;262;274580;-51
2021/08/16 03:10:33;;;;;;;;;;;;;;;22.94;70.33;96088.77;220359;262;194894;-54
2021/08/16 03:11:34;;;;;;;;;;;;;;;22.94;70.46;96087.97;221167;261;192041;-53
2021/08/16 03:12:35;;;;;;;;;;;;;;;22.91;70.52;96087.33;220668;262;97082;-54
2021/08/16 03:13:37;;;;;;;;;;;;;;;22.91;70.43;96083.98;220200;262;98845;-50
2021/08/16 03:14:38;;;;;;;;;;;;;;;22.89;70.41;96086.89;220523;262;98984;-53
2021/08/16 03:15:39;;;;;;;;;;;;;;;22.89;70.37;96093.22;220433;262;99117;-50
2021/08/16 03:16:41;;;;;;;;;;;;;;;22.94;70.31;96084.63;221122;261;98110;-50
2021/08/16 03:17:42;;;;;;;;;;;;;;;22.97;70.17;96083.11;220445;262;97955;-53
2021/08/16 03:18:43;;;;;;;;;;;;;;;22.96;70.21;96082.87;220824;261;97032;-52
2021/08/16 03:19:45;;;;;;;;;;;;;;;22.96;70.15;96080.11;221487;261;99042;-52
2021/08/16 03:20:46;;;;;;;;;;;;;;;22.93;70.31;96082.23;221104;262;98946;-57
2021/08/16 03:21:47;;;;;;;;;;;;;;;22.91;70.91;96083.18;221475;262;97979;-55
2021/08/16 03:22:49;;;;;;;;;;;;;;;22.97;70.71;96077.59;220689;262;97906;-55
2021/08/16 03:23:50;;;;;;;;;;;;;;;22.96;70.81;96076.76;221997;261;98134;-51
2021/08/16 03:24:51;;;;;;;;;;;;;;;23.02;70.51;96076.69;222296;261;98999;-53
2021/08/16 03:25:53;;;;;;;;;;;;;;;22.98;70.44;96079.19;221223;261;98839;-50
2021/08/16 03:26:54;;;;;;;;;;;;;;;22.96;70.49;96075.37;220664;262;98942;-53
2021/08/16 03:27:55;;;;;;;;;;;;;;;22.92;70.62;96077.28;220423;262;98036;-55
2021/08/16 03:28:57;;;;;;;;;;;;;;;23.00;70.48;96073.50;220997;262;98007;-61
2021/08/16 03:29:58;;;;;;;;;;;;;;;23.04;70.40;96077.13;220452;262;98008;-57
2021/08/16 03:30:59;;;;;;;;;;;;;;;23.06;71.14;96079.52;221693;261;99066;-47
2021/08/16 03:32:01;;;;;;;;;;;;;;;23.06;70.75;96078.93;221262;262;98852;-54
2021/08/16 03:33:02;;;;;;;;;;;;;;;23.06;70.44;96078.93;221611;261;98929;-52
2021/08/16 03:34:03;;;;;;;;;;;;;;;23.09;70.39;96078.80;220879;262;98956;-54
2021/08/16 03:35:05;;;;;;;;;;;;;;;23.09;70.31;96081.57;220449;262;99232;-50
2021/08/16 03:36:06;;;;;;;;;;;;;;;23.09;70.25;96082.37;221501;261;98010;-52
2021/08/16 03:37:07;;;;;;;;;;;;;;;23.06;70.11;96083.08;221589;261;99017;-56
2021/08/16 03:38:09;;;;;;;;;;;;;;;23.00;70.25;96080.99;221701;261;98992;-51
2021/08/16 03:39:10;;;;;;;;;;;;;;;23.02;70.18;96086.95;220729;262;98937;-56
2021/08/16 03:40:11;;;;;;;;;;;;;;;23.04;70.21;96080.47;220451;262;98906;-52
2021/08/16 03:41:13;;;;;;;;;;;;;;;22.99;70.30;96082.96;220984;262;98988;-55
2021/08/16 03:42:15;;;;;;;;;;;;;;;23.00;70.14;96077.64;220463;262;99438;-51
2021/08/16 03:43:16;;;;;;;;;;;;;;;22.99;70.18;96084.34;221052;261;98938;-60
2021/08/16 03:44:17;;;;;;;;;;;;;;;23.02;70.12;96080.84;220344;262;98935;-57
2021/08/16 03:45:20;;;;;;;;;;;;;;;23.05;70.02;96077.34;221096;261;98988;-56
2021/08/16 03:46:21;;;;;;;;;;;;;;;22.99;70.05;96073.29;220137;262;195000;-56
2021/08/16 03:47:22;;;;;;;;;;;;;;;23.05;70.01;96080.09;220449;262;193326;-54
2021/08/16 03:48:24;;;;;;;;;;;;;;;23.01;70.02;96075.09;220953;262;98924;-56
2021/08/16 03:49:25;;;;;;;;;;;;;;;23.05;69.97;96077.91;220472;262;98047;-55
2021/08/16 03:50:27;;;;;;;;;;;;;;;23.04;69.91;96078.50;221069;261;99065;-56
2021/08/16 03:51:28;;;;;;;;;;;;;;;23.01;69.92;96082.00;220452;262;98927;-54
2021/08/16 03:52:29;;;;;;;;;;;;;;;22.98;70.02;96075.84;220818;262;98951;-57
2021/08/16 03:53:30;;;;;;;;;;;;;;;23.01;70.03;96076.48;221524;261;99030;-57
2021/08/16 03:54:32;;;;;;;;;;;;;;;22.98;70.16;96077.80;221297;261;98933;-56
2021/08/16 03:55:33;;;;;;;;;;;;;;;22.96;70.05;96069.85;220980;262;98998;-57
2021/08/16 03:56:35;;;;;;;;;;;;;;;23.00;70.02;96072.70;220466;262;98958;-56
2021/08/16 03:57:36;;;;;;;;;;;;;;;22.99;69.92;96073.29;221292;261;98938;-55
2021/08/16 03:58:37;;;;;;;;;;;;;;;22.98;70.06;96070.89;220653;262;98949;-56
2021/08/16 03:59:39;;;;;;;;;;;;;;;23.01;69.90;96073.72;220824;262;97991;-57
2021/08/16 04:00:41;;;;;;;;;;;;;;;23.01;69.88;96066.80;221036;261;97984;-55
2021/08/16 04:01:42;;;;;;;;;;;;;;;23.02;69.86;96071.17;220370;262;193048;-56
2021/08/16 04:02:45;;;;;;;;;;;;;;;23.02;69.92;96070.37;221030;262;98947;-55
2021/08/16 04:03:47;;;;;;;;;;;;;;;23.01;69.78;96077.86;220489;262;69308;-57
2021/08/16 04:04:49;;;;;;;;;;;;;;;23.03;69.75;96068.61;221302;262;99006;-54
2021/08/16 04:05:50;;;;;;;;;;;;;;;23.06;69.67;96072.02;221469;261;189492;-56
2021/08/16 04:06:52;;;;;;;;;;;;;;;23.04;69.74;96071.59;221784;261;275111;-54
2021/08/16 04:07:53;;;;;;;;;;;;;;;23.06;69.63;96076.17;220355;262;194628;-55
2021/08/16 04:08:55;;;;;;;;;;;;;;;23.07;69.58;96072.27;219993;264;192782;-57
2021/08/16 04:09:56;;;;;;;;;;;;;;;23.02;69.66;96079.45;221231;262;98084;-56
2021/08/16 04:12:07;;;;;;;;;;;;;;;23.04;70.04;96075.73;227634;255;68913;-55
2021/08/16 04:13:08;;;;;;;;;;;;;;;23.02;69.91;96073.93;222006;260;189121;-57
2021/08/16 04:14:09;;;;;;;;;;;;;;;22.98;69.97;96070.31;221567;260;275971;-56
2021/08/16 04:15:11;;;;;;;;;;;;;;;23.09;69.85;96062.22;220942;261;193597;-57
2021/08/16 04:16:12;;;;;;;;;;;;;;;23.08;70.13;96068.92;222591;259;193331;-54
2021/08/16 04:17:17;;;;;;;;;;;;;;;22.99;70.37;96068.34;223000;260;98944;-58
2021/08/16 04:18:17;;;;;;;;;;;;;;;22.87;70.70;96069.30;222904;260;69684;-56
2021/08/16 04:19:18;;;;;;;;;;;;;;;22.89;71.96;96069.73;222461;260;98823;-49
2021/08/16 04:20:19;;;;;;;;;;;;;;;22.84;70.67;96064.48;220795;262;97982;-53
2021/08/16 04:21:21;;;;;;;;;;;;;;;22.87;70.56;96063.78;220174;262;274648;-53
2021/08/16 04:22:22;;;;;;;;;;;;;;;22.92;71.38;96064.84;220719;262;193815;-50
2021/08/16 04:23:24;;;;;;;;;;;;;;;22.90;70.58;96062.24;220932;262;193105;-56
2021/08/16 04:24:25;;;;;;;;;;;;;;;22.91;70.50;96064.64;221542;261;99449;-54
2021/08/16 04:25:26;;;;;;;;;;;;;;;22.89;70.40;96060.06;221890;261;97868;-50
2021/08/16 04:26:27;;;;;;;;;;;;;;;22.90;70.80;96057.52;222591;261;98945;-52
2021/08/16 04:27:29;;;;;;;;;;;;;;;22.79;71.79;96055.89;221628;261;99032;-52
2021/08/16 04:28:30;;;;;;;;;;;;;;;22.88;71.27;96051.56;221692;262;99027;-54
2021/08/16 04:29:31;;;;;;;;;;;;;;;22.85;70.58;96052.27;221672;260;98947;-59
2021/08/16 04:30:33;;;;;;;;;;;;;;;22.90;70.49;96051.98;221248;262;98933;-56
2021/08/16 04:31:34;;;;;;;;;;;;;;;23.04;70.32;96053.63;221561;262;99038;-53
2021/08/16 04:32:36;;;;;;;;;;;;;;;23.17;69.98;96053.45;221378;262;98945;-57
2021/08/16 04:33:37;;;;;;;;;;;;;;;23.28;69.63;96055.83;221513;262;98953;-55
2021/08/16 04:34:38;;;;;;;;;;;;;;;23.30;69.54;96057.08;220987;262;99030;-62
2021/08/16 04:35:39;;;;;;;;;;;;;;;23.34;69.44;96055.75;221529;262;98953;-53
2021/08/16 04:36:41;;;;;;;;;;;;;;;23.41;69.79;96047.59;221293;262;98817;-57
2021/08/16 04:37:42;;;;;;;;;;;;;;;23.28;69.49;96048.91;221268;262;99027;-60
2021/08/16 04:38:44;;;;;;;;;;;;;;;23.26;69.59;96045.72;221283;262;98950;-60
2021/08/16 04:39:45;;;;;;;;;;;;;;;23.25;69.62;96049.08;222140;261;99458;-58
2021/08/16 04:40:46;;;;;;;;;;;;;;;23.25;69.63;96046.89;222484;261;98945;-59
2021/08/16 04:41:50;;;;;;;;;;;;;;;23.20;69.62;96045.83;222785;260;98925;-58
2021/08/16 04:42:51;;;;;;;;;;;;;;;23.21;69.89;96043.28;221576;262;243442;-60
2021/08/16 04:43:52;;;;;;;;;;;;;;;23.18;69.76;96039.84;222187;261;194905;-58
2021/08/16 04:44:53;;;;;;;;;;;;;;;23.14;69.95;96041.77;222132;261;193181;-60
2021/08/16 04:45:55;;;;;;;;;;;;;;;23.17;69.79;96038.25;222260;261;99444;-59
2021/08/16 04:46:56;;;;;;;;;;;;;;;23.25;69.68;96035.84;222977;260;98038;-59
2021/08/16 04:47:57;;;;;;;;;;;;;;;23.21;69.59;96030.84;223231;260;97158;-58
2021/08/16 04:48:59;;;;;;;;;;;;;;;23.24;69.56;96032.86;223000;259;98933;-57
2021/08/16 04:50:00;;;;;;;;;;;;;;;23.25;69.57;96033.08;223095;260;99451;-57
2021/08/16 04:51:01;;;;;;;;;;;;;;;23.25;69.81;96034.45;222448;260;98982;-58
2021/08/16 04:52:03;;;;;;;;;;;;;;;23.25;69.50;96036.63;221863;260;98930;-58
2021/08/16 04:53:04;;;;;;;;;;;;;;;23.31;69.59;96033.00;222096;262;98957;-59
2021/08/16 04:54:05;;;;;;;;;;;;;;;23.29;69.49;96032.57;221315;262;98978;-59
2021/08/16 04:55:07;;;;;;;;;;;;;;;23.33;69.45;96030.66;222459;261;98933;-59
2021/08/16 04:56:08;;;;;;;;;;;;;;;23.34;69.26;96029.48;222409;260;98954;-58
2021/08/16 04:57:09;;;;;;;;;;;;;;;23.30;69.46;96032.20;222180;262;98978;-59
2021/08/16 04:58:11;;;;;;;;;;;;;;;23.30;69.49;96033.58;222298;261;98938;-55
2021/08/16 04:59:12;;;;;;;;;;;;;;;23.28;69.40;96037.27;222202;260;97679;-56
2021/08/16 05:00:14;;;;;;;;;;;;;;;23.31;69.49;96036.55;222514;261;97911;-59
2021/08/16 05:01:15;;;;;;;;;;;;;;;23.29;69.98;96036.13;222307;260;97602;-58
2021/08/16 05:02:16;;;;;;;;;;;;;;;23.24;69.65;96030.89;222507;261;97951;-56
2021/08/16 05:03:17;;;;;;;;;;;;;;;23.37;69.31;96035.65;222531;260;98015;-55
2021/08/16 05:04:19;;;;;;;;;;;;;;;23.33;69.28;96034.80;222994;260;97069;-60
2021/08/16 05:05:23;;;;;;;;;;;;;;;23.31;69.34;96036.55;222907;260;99034;-55
2021/08/16 05:06:33;;;;;;;;;;;;;;;23.31;69.40;96030.23;222320;260;161739;-52
2021/08/16 05:07:26;;;;;;;;;;;;;;;23.32;69.37;96037.36;222022;261;68159;-55
2021/08/16 05:08:28;;;;;;;;;;;;;;;23.33;69.16;96034.80;222604;260;98015;-54
2021/08/16 05:09:30;;;;;;;;;;;;;;;23.36;69.26;96043.73;223095;260;98112;-57
2021/08/16 05:10:31;;;;;;;;;;;;;;;23.42;69.14;96038.13;222808;260;190393;-56
2021/08/16 05:11:32;;;;;;;;;;;;;;;23.37;69.07;96044.73;221109;261;276596;-60
2021/08/16 05:12:34;;;;;;;;;;;;;;;23.57;68.76;96044.09;223214;260;195598;-51
2021/08/16 05:13:35;;;;;;;;;;;;;;;23.57;68.57;96043.30;222815;260;192035;-54
2021/08/16 05:14:36;;;;;;;;;;;;;;;23.52;68.69;96052.72;222567;260;99487;-57
2021/08/16 05:15:38;;;;;;;;;;;;;;;23.49;69.01;96049.28;221799;262;98937;-57
2021/08/16 05:16:41;;;;;;;;;;;;;;;23.35;68.87;96050.44;222490;261;98086;-58
2021/08/16 05:17:42;;;;;;;;;;;;;;;23.31;69.05;96053.14;222700;261;69555;-52
2021/08/16 05:18:43;;;;;;;;;;;;;;;23.26;69.22;96053.44;221900;260;277309;-58
2021/08/16 05:19:45;;;;;;;;;;;;;;;23.31;69.36;96052.34;221577;261;194206;-55